createdAt,value
2023-02-19T00:00:26.983Z,28.16
2023-02-19T00:02:59.253Z,28.19
2023-02-19T00:05:29.374Z,28.22
2023-02-19T00:07:59.831Z,28.23
2023-02-19T00:10:30.116Z,28.24
2023-02-19T00:13:00.161Z,28.28
2023-02-19T00:15:30.276Z,28.33
2023-02-19T00:18:00.508Z,28.40
2023-02-19T00:20:31.140Z,28.42
2023-02-19T00:23:01.320Z,28.36
2023-02-19T00:25:31.367Z,28.37
2023-02-19T00:28:01.484Z,28.32
2023-02-19T00:30:31.881Z,28.33
2023-02-19T00:33:02.029Z,28.28
2023-02-19T00:35:32.057Z,28.25
2023-02-19T00:38:02.109Z,28.27
2023-02-19T00:40:32.452Z,28.29
2023-02-19T00:43:02.518Z,28.41
2023-02-19T00:45:32.646Z,28.46
2023-02-19T00:48:02.637Z,28.55
2023-02-19T00:50:32.702Z,28.61
2023-02-19T00:53:02.770Z,28.59
2023-02-19T00:55:33.346Z,28.61
2023-02-19T00:58:03.464Z,28.64
2023-02-19T01:00:34.996Z,28.68
2023-02-19T01:03:05.154Z,28.72
2023-02-19T01:05:35.461Z,28.75
2023-02-19T01:08:05.826Z,28.90
2023-02-19T01:10:36.518Z,28.94
2023-02-19T01:13:07.202Z,28.93
2023-02-19T01:15:37.428Z,28.94
2023-02-19T01:18:07.475Z,28.97
2023-02-19T01:20:39.763Z,28.99
2023-02-19T01:23:10.371Z,29.04
2023-02-19T01:25:41.204Z,29.06
2023-02-19T01:28:12.804Z,29.10
2023-02-19T01:30:43.186Z,29.13
2023-02-19T01:33:13.164Z,29.13
2023-02-19T01:35:43.464Z,29.17
2023-02-19T01:38:13.566Z,29.18
2023-02-19T01:40:55.470Z,29.21
2023-02-19T01:43:25.508Z,29.25
2023-02-19T01:45:55.625Z,29.28
2023-02-19T01:48:28.796Z,29.25
2023-02-19T01:51:06.435Z,29.24
2023-02-19T01:53:39.861Z,29.27
2023-02-19T01:56:10.561Z,29.28
2023-02-19T01:58:41.609Z,29.31
2023-02-19T02:01:12.042Z,29.35
2023-02-19T02:03:43.849Z,29.37
2023-02-19T02:06:25.757Z,29.40
2023-02-19T02:09:16.446Z,29.44
2023-02-19T02:11:49.701Z,29.47
2023-02-19T02:14:21.992Z,29.50
2023-02-19T02:16:57.424Z,29.52
2023-02-19T02:19:45.849Z,29.54
2023-02-19T02:22:15.863Z,29.58
2023-02-19T02:24:55.637Z,29.60
2023-02-19T02:27:44.281Z,29.63
2023-02-19T02:30:20.776Z,29.64
2023-02-19T02:33:02.988Z,29.67
2023-02-19T02:35:36.296Z,29.70
2023-02-19T02:38:09.532Z,29.72
2023-02-19T02:40:43.317Z,29.73
2023-02-19T02:43:15.488Z,29.76
2023-02-19T02:45:46.275Z,29.78
2023-02-19T02:48:34.462Z,29.79
2023-02-19T02:51:05.121Z,29.82
2023-02-19T02:54:01.900Z,29.86
2023-02-19T02:56:32.873Z,29.87
2023-02-19T02:59:05.637Z,29.89
2023-02-19T03:02:09.360Z,29.92
2023-02-19T03:05:04.257Z,29.94
2023-02-19T03:07:41.796Z,29.97
2023-02-19T03:10:14.030Z,30.00
2023-02-19T03:13:04.140Z,30.02
2023-02-19T03:15:56.096Z,30.04
2023-02-19T03:18:46.639Z,30.07
2023-02-19T03:21:18.720Z,30.10
2023-02-19T03:24:08.181Z,30.12
2023-02-19T03:26:39.565Z,30.14
2023-02-19T03:29:25.564Z,30.17
2023-02-19T03:32:05.122Z,30.20
2023-02-19T03:34:58.317Z,30.17
2023-02-19T03:37:31.405Z,30.12
2023-02-19T03:40:03.100Z,30.09
2023-02-19T03:42:38.676Z,30.06
2023-02-19T03:45:16.410Z,30.06
2023-02-19T03:48:05.097Z,30.07
2023-02-19T03:50:49.612Z,30.08
2023-02-19T03:53:31.774Z,30.08
2023-02-19T03:56:02.389Z,30.15
2023-02-19T03:58:55.498Z,30.25
2023-02-19T04:01:32.111Z,30.30
2023-02-19T04:04:23.705Z,30.33
2023-02-19T04:06:58.715Z,30.32
2023-02-19T04:09:35.385Z,30.36
2023-02-19T04:12:11.162Z,30.38
2023-02-19T04:14:56.810Z,30.42
2023-02-19T04:17:31.409Z,30.40
2023-02-19T04:20:03.576Z,30.43
2023-02-19T04:22:33.712Z,30.42
2023-02-19T04:25:04.077Z,30.42
2023-02-19T04:27:36.276Z,30.44
2023-02-19T04:30:07.739Z,30.45
2023-02-19T04:32:37.916Z,30.46
2023-02-19T04:35:08.581Z,30.50
2023-02-19T04:37:38.718Z,30.49
2023-02-19T04:40:09.873Z,30.53
2023-02-19T04:42:40.118Z,30.54
2023-02-19T04:45:10.750Z,30.55
2023-02-19T04:47:40.750Z,30.60
2023-02-19T04:50:10.980Z,30.68
2023-02-19T04:52:41.710Z,30.75
2023-02-19T04:55:12.208Z,30.81
2023-02-19T04:57:42.288Z,30.86
2023-02-19T05:00:15.415Z,30.91
2023-02-19T05:02:45.841Z,30.95
2023-02-19T05:05:16.079Z,31.00
2023-02-19T05:07:46.583Z,31.02
2023-02-19T05:10:16.621Z,31.05
2023-02-19T05:12:46.674Z,31.07
2023-02-19T05:15:17.299Z,30.92
2023-02-19T05:17:47.387Z,30.62
2023-02-19T05:20:17.459Z,30.37
2023-02-19T05:22:47.512Z,30.13
2023-02-19T05:25:17.762Z,29.99
2023-02-19T05:27:47.785Z,29.80
2023-02-19T05:30:17.939Z,29.69
2023-02-19T05:32:48.675Z,29.65
2023-02-19T05:35:18.864Z,29.54
2023-02-19T05:37:49.190Z,29.48
2023-02-19T05:40:19.268Z,29.45
2023-02-19T05:42:49.351Z,29.40
2023-02-19T05:45:19.457Z,29.30
2023-02-19T05:47:49.672Z,29.26
2023-02-19T05:50:19.721Z,29.24
2023-02-19T05:52:49.911Z,29.23
2023-02-19T05:55:21.044Z,29.24
2023-02-19T05:57:51.047Z,29.20
2023-02-19T06:00:22.120Z,29.18
2023-02-19T06:02:52.174Z,29.16
2023-02-19T06:05:22.299Z,29.16
2023-02-19T06:07:52.571Z,29.16
2023-02-19T06:10:22.786Z,29.13
2023-02-19T06:12:56.481Z,29.10
2023-02-19T06:15:26.584Z,29.20
2023-02-19T06:17:56.629Z,29.31
2023-02-19T06:20:26.776Z,29.34
2023-02-19T06:22:56.902Z,29.40
2023-02-19T06:25:27.063Z,29.42
2023-02-19T06:27:57.168Z,29.41
2023-02-19T06:30:27.320Z,29.39
2023-02-19T06:32:58.285Z,29.37
2023-02-19T06:35:28.456Z,29.36
2023-02-19T06:37:58.576Z,29.35
2023-02-19T06:40:28.586Z,29.36
2023-02-19T06:42:58.622Z,29.35
2023-02-19T06:45:28.720Z,29.33
2023-02-19T06:47:59.483Z,29.35
2023-02-19T06:50:29.657Z,29.33
2023-02-19T06:52:59.702Z,29.32
2023-02-19T06:55:30.313Z,29.34
2023-02-19T06:58:00.512Z,29.35
2023-02-19T07:00:30.751Z,29.34
2023-02-19T07:03:02.857Z,29.31
2023-02-19T07:05:34.063Z,29.32
2023-02-19T07:08:04.752Z,29.30
2023-02-19T07:10:34.819Z,29.31
2023-02-19T07:13:04.928Z,29.31
2023-02-19T07:15:36.024Z,29.35
2023-02-19T07:18:08.526Z,29.32
2023-02-19T07:20:39.232Z,29.36
2023-02-19T07:23:09.311Z,29.32
2023-02-19T07:25:39.456Z,29.37
2023-02-19T07:28:09.542Z,29.40
2023-02-19T07:30:39.770Z,29.42
2023-02-19T07:33:10.627Z,29.42
2023-02-19T07:35:46.625Z,29.40
2023-02-19T07:38:20.054Z,29.44
2023-02-19T07:41:08.514Z,29.46
2023-02-19T07:43:39.852Z,29.45
2023-02-19T07:46:11.760Z,29.44
2023-02-19T07:48:42.618Z,29.49
2023-02-19T07:51:18.100Z,29.49
2023-02-19T07:53:48.506Z,29.50
2023-02-19T07:56:19.874Z,29.50
2023-02-19T07:58:50.011Z,29.50
2023-02-19T08:01:41.337Z,29.54
2023-02-19T08:04:12.984Z,29.57
2023-02-19T08:06:43.633Z,29.56
2023-02-19T08:09:13.819Z,29.55
2023-02-19T08:12:02.742Z,29.58
2023-02-19T08:14:33.012Z,29.57
2023-02-19T08:17:03.547Z,29.61
2023-02-19T08:19:33.634Z,29.63
2023-02-19T08:22:03.753Z,29.64
2023-02-19T08:24:35.258Z,29.66
2023-02-19T08:27:05.311Z,29.66
2023-02-19T08:29:36.655Z,29.64
2023-02-19T08:32:07.476Z,29.63
2023-02-19T08:34:37.636Z,29.61
2023-02-19T08:37:07.885Z,29.62
2023-02-19T08:39:38.373Z,29.60
2023-02-19T08:42:08.406Z,29.61
2023-02-19T08:44:38.399Z,29.74
2023-02-19T08:47:09.618Z,29.68
2023-02-19T08:49:39.673Z,29.77
2023-02-19T08:52:09.702Z,29.94
2023-02-19T08:54:39.756Z,30.11
2023-02-19T08:57:10.480Z,30.40
2023-02-19T08:59:40.869Z,30.61
2023-02-19T09:02:11.796Z,30.77
2023-02-19T09:04:41.902Z,30.90
2023-02-19T09:07:14.068Z,31.01
2023-02-19T09:09:44.445Z,31.10
2023-02-19T09:12:14.949Z,31.17
2023-02-19T09:14:45.053Z,31.25
2023-02-19T09:17:15.098Z,31.30
2023-02-19T09:19:45.140Z,31.36
2023-02-19T09:22:15.366Z,31.41
2023-02-19T09:24:46.080Z,31.45
2023-02-19T09:27:17.504Z,31.42
2023-02-19T09:29:48.045Z,31.41
2023-02-19T09:32:19.212Z,31.35
2023-02-19T09:34:51.312Z,31.26
2023-02-19T09:37:21.442Z,31.20
2023-02-19T09:39:51.638Z,31.21
2023-02-19T09:42:26.050Z,31.20
2023-02-19T09:44:57.422Z,31.25
2023-02-19T09:47:29.381Z,31.27
2023-02-19T09:50:06.213Z,31.27
2023-02-19T09:52:36.262Z,31.29
2023-02-19T09:55:15.101Z,31.29
2023-02-19T09:57:46.128Z,31.32
2023-02-19T10:00:16.471Z,31.38
2023-02-19T10:02:46.543Z,31.40
2023-02-19T10:05:18.209Z,31.45
2023-02-19T10:07:51.013Z,31.44
2023-02-19T10:10:24.145Z,31.51
2023-02-19T10:12:57.499Z,31.58
2023-02-19T10:15:27.720Z,31.63
2023-02-19T10:17:58.031Z,31.66
2023-02-19T10:20:29.404Z,31.68
2023-02-19T10:23:06.939Z,31.66
2023-02-19T10:25:37.458Z,31.68
2023-02-19T10:28:11.631Z,31.69
2023-02-19T10:30:41.761Z,31.70
2023-02-19T10:33:14.015Z,31.72
2023-02-19T10:36:03.537Z,31.72
2023-02-19T10:38:38.694Z,31.71
2023-02-19T10:41:14.090Z,31.71
2023-02-19T10:43:45.745Z,31.50
2023-02-19T10:46:20.621Z,31.38
2023-02-19T10:48:55.460Z,31.31
2023-02-19T10:51:36.863Z,31.25
2023-02-19T10:54:26.808Z,31.18
2023-02-19T10:56:57.197Z,31.14
2023-02-19T10:59:28.564Z,31.12
2023-02-19T11:02:03.054Z,31.12
2023-02-19T11:04:36.818Z,31.09
2023-02-19T11:07:15.756Z,31.07
2023-02-19T11:09:47.633Z,31.07
2023-02-19T11:12:26.713Z,31.05
2023-02-19T11:14:56.824Z,31.07
2023-02-19T11:17:28.312Z,31.08
2023-02-19T11:20:03.668Z,31.06
2023-02-19T11:22:41.026Z,31.05
2023-02-19T11:25:17.735Z,31.06
2023-02-19T11:28:08.424Z,31.07
2023-02-19T11:30:40.186Z,31.05
2023-02-19T11:33:23.346Z,31.06
2023-02-19T11:36:01.169Z,31.07
2023-02-19T11:38:31.759Z,31.03
2023-02-19T11:41:08.336Z,31.03
2023-02-19T11:43:57.223Z,31.03
2023-02-19T11:46:45.970Z,31.01
2023-02-19T11:49:19.206Z,31.01
2023-02-19T11:51:52.837Z,31.00
2023-02-19T11:54:22.978Z,30.98
2023-02-19T11:57:19.076Z,31.03
2023-02-19T11:59:57.063Z,31.09
2023-02-19T12:02:30.371Z,31.14
2023-02-19T12:05:10.382Z,31.15
2023-02-19T12:08:16.291Z,31.19
2023-02-19T12:11:04.638Z,31.20
2023-02-19T12:13:34.673Z,31.22
2023-02-19T12:16:24.666Z,31.22
2023-02-19T12:19:06.658Z,31.23
2023-02-19T12:21:52.899Z,31.22
2023-02-19T12:24:40.936Z,31.21
2023-02-19T12:27:31.024Z,31.20
2023-02-19T12:30:19.730Z,31.20
2023-02-19T12:33:08.086Z,31.17
2023-02-19T12:36:07.394Z,31.15
2023-02-19T12:38:52.632Z,31.14
2023-02-19T12:41:42.824Z,31.14
2023-02-19T12:44:18.864Z,31.14
2023-02-19T12:46:54.651Z,31.12
2023-02-19T12:49:32.036Z,31.12
2023-02-19T12:52:04.837Z,31.12
2023-02-19T12:54:41.807Z,31.10
2023-02-19T12:57:41.210Z,31.09
2023-02-19T13:00:30.138Z,31.08
2023-02-19T13:03:11.757Z,31.08
2023-02-19T13:05:57.366Z,31.06
2023-02-19T13:08:34.734Z,31.05
2023-02-19T13:11:16.062Z,31.05
2023-02-19T13:13:50.681Z,31.02
2023-02-19T13:16:22.507Z,31.02
2023-02-19T13:18:55.244Z,31.00
2023-02-19T13:21:46.685Z,31.01
2023-02-19T13:24:22.522Z,30.99
2023-02-19T13:27:01.462Z,30.99
2023-02-19T13:29:40.376Z,30.96
2023-02-19T13:32:20.018Z,30.96
2023-02-19T13:35:19.378Z,30.94
2023-02-19T13:37:50.173Z,30.93
2023-02-19T13:40:20.808Z,30.93
2023-02-19T13:42:58.341Z,30.92
2023-02-19T13:45:38.103Z,30.90
2023-02-19T13:48:27.557Z,30.90
2023-02-19T13:51:16.466Z,30.88
2023-02-19T13:53:55.198Z,30.89
2023-02-19T13:56:32.822Z,30.87
2023-02-19T13:59:21.367Z,30.86
2023-02-19T14:01:52.766Z,30.86
2023-02-19T14:04:41.264Z,30.86
2023-02-19T14:07:11.321Z,30.86
2023-02-19T14:09:47.626Z,30.85
2023-02-19T14:12:17.683Z,30.82
2023-02-19T14:14:54.486Z,30.84
2023-02-19T14:17:29.241Z,30.82
2023-02-19T14:20:11.274Z,30.82
2023-02-19T14:22:47.789Z,30.83
2023-02-19T14:25:28.321Z,30.84
2023-02-19T14:28:17.151Z,30.84
2023-02-19T14:30:55.371Z,30.85
2023-02-19T14:33:27.314Z,30.72
2023-02-19T14:36:04.297Z,30.47
2023-02-19T14:38:43.738Z,30.19
2023-02-19T14:41:17.035Z,29.93
2023-02-19T14:43:49.374Z,29.72
2023-02-19T14:46:32.550Z,29.54
2023-02-19T14:49:17.760Z,29.40
2023-02-19T14:51:52.691Z,29.28
2023-02-19T14:54:31.329Z,29.17
2023-02-19T14:57:03.490Z,29.10
2023-02-19T14:59:33.762Z,29.07
2023-02-19T15:02:27.416Z,29.04
2023-02-19T15:04:58.149Z,29.03
2023-02-19T15:07:33.486Z,29.00
2023-02-19T15:10:06.738Z,29.01
2023-02-19T15:12:53.052Z,29.04
2023-02-19T15:15:25.443Z,29.00
2023-02-19T15:17:56.039Z,28.94
2023-02-19T15:20:28.014Z,28.85
2023-02-19T15:23:00.041Z,28.80
2023-02-19T15:25:38.419Z,28.74
2023-02-19T15:28:22.325Z,28.68
2023-02-19T15:30:53.184Z,28.62
2023-02-19T15:33:23.553Z,28.58
2023-02-19T15:35:55.292Z,28.53
2023-02-19T15:38:25.682Z,28.47
2023-02-19T15:40:57.418Z,28.42
2023-02-19T15:43:30.512Z,28.38
2023-02-19T15:46:06.424Z,28.37
2023-02-19T15:48:43.719Z,28.36
2023-02-19T15:51:18.170Z,28.29
2023-02-19T15:53:50.636Z,28.28
2023-02-19T15:56:29.635Z,28.23
2023-02-19T15:59:03.506Z,28.22
2023-02-19T16:01:40.754Z,27.74
2023-02-19T16:04:18.821Z,28.20
2023-02-19T16:06:56.932Z,28.19
2023-02-19T16:09:32.701Z,28.15
2023-02-19T16:12:03.715Z,28.15
2023-02-19T16:14:35.587Z,28.14
2023-02-19T16:17:05.877Z,28.14
2023-02-19T16:19:44.511Z,28.12
2023-02-19T16:22:19.015Z,28.11
2023-02-19T16:24:59.848Z,28.09
2023-02-19T16:27:32.132Z,28.05
2023-02-19T16:30:07.479Z,28.02
2023-02-19T16:32:37.612Z,27.97
2023-02-19T16:35:28.037Z,27.98
2023-02-19T16:37:59.826Z,28.05
2023-02-19T16:40:45.303Z,28.09
2023-02-19T16:43:15.863Z,28.10
2023-02-19T16:45:46.968Z,28.06
2023-02-19T16:48:17.509Z,28.05
2023-02-19T16:50:47.679Z,28.05
2023-02-19T16:53:22.461Z,28.02
2023-02-19T16:55:53.250Z,27.99
2023-02-19T16:58:23.243Z,28.00
2023-02-19T17:00:53.424Z,27.98
2023-02-19T17:03:25.894Z,27.99
2023-02-19T17:05:59.557Z,27.97
2023-02-19T17:08:38.526Z,27.98
2023-02-19T17:11:12.022Z,27.96
2023-02-19T17:13:42.429Z,27.95
2023-02-19T17:16:19.018Z,27.93
2023-02-19T17:18:49.499Z,27.94
2023-02-19T17:21:24.315Z,27.95
2023-02-19T17:23:55.535Z,27.94
2023-02-19T17:26:27.681Z,27.90
2023-02-19T17:29:01.709Z,27.89
2023-02-19T17:31:35.471Z,27.90
2023-02-19T17:34:05.664Z,27.87
2023-02-19T17:36:36.241Z,27.86
2023-02-19T17:39:08.570Z,27.86
2023-02-19T17:41:38.522Z,27.84
2023-02-19T17:44:08.614Z,27.82
2023-02-19T17:46:39.702Z,27.81
2023-02-19T17:49:10.294Z,27.79
2023-02-19T17:51:40.913Z,27.79
2023-02-19T17:54:11.028Z,27.76
2023-02-19T17:56:44.680Z,27.75
2023-02-19T17:59:15.959Z,27.72
2023-02-19T18:01:47.724Z,27.71
2023-02-19T18:04:18.340Z,27.71
2023-02-19T18:06:49.886Z,27.71
2023-02-19T18:09:20.836Z,27.66
2023-02-19T18:11:50.861Z,27.65
2023-02-19T18:14:20.916Z,27.65
2023-02-19T18:16:51.384Z,27.66
2023-02-19T18:19:21.536Z,27.67
2023-02-19T18:21:51.507Z,27.65
2023-02-19T18:24:22.053Z,27.66
2023-02-19T18:26:52.133Z,27.64
2023-02-19T18:29:23.406Z,27.63
2023-02-19T18:31:54.102Z,27.62
2023-02-19T18:34:24.142Z,27.62
2023-02-19T18:36:54.343Z,27.60
2023-02-19T18:39:24.338Z,27.59
2023-02-19T18:41:54.472Z,27.55
2023-02-19T18:44:25.501Z,27.57
2023-02-19T18:46:55.539Z,27.53
2023-02-19T18:49:26.117Z,27.52
2023-02-19T18:51:56.593Z,27.51
2023-02-19T18:54:27.904Z,27.54
2023-02-19T18:56:58.427Z,27.53
2023-02-19T18:59:28.957Z,27.53
2023-02-19T19:01:59.570Z,27.51
2023-02-19T19:04:30.015Z,27.50
2023-02-19T19:07:00.503Z,27.49
2023-02-19T19:09:30.495Z,27.48
2023-02-19T19:12:00.560Z,27.48
2023-02-19T19:14:30.580Z,27.47
2023-02-19T19:17:01.620Z,27.45
2023-02-19T19:19:31.604Z,27.42
2023-02-19T19:22:01.709Z,27.43
2023-02-19T19:24:32.316Z,27.41
2023-02-19T19:27:02.356Z,27.40
2023-02-19T19:29:33.092Z,27.33
2023-02-19T19:32:03.169Z,27.35
2023-02-19T19:34:33.811Z,27.35
2023-02-19T19:37:03.850Z,27.33
2023-02-19T19:39:33.950Z,27.32
2023-02-19T19:42:04.106Z,27.31
2023-02-19T19:44:34.404Z,27.27
2023-02-19T19:47:04.366Z,27.26
2023-02-19T19:49:34.809Z,27.26
2023-02-19T19:52:05.245Z,27.23
2023-02-19T19:54:35.458Z,27.21
2023-02-19T19:57:05.625Z,27.18
2023-02-19T19:59:35.657Z,27.18
2023-02-19T20:02:05.705Z,27.16
2023-02-19T20:04:35.874Z,27.12
2023-02-19T20:07:07.694Z,27.09
2023-02-19T20:09:37.839Z,27.10
2023-02-19T20:12:08.454Z,27.09
2023-02-19T20:14:38.589Z,27.06
2023-02-19T20:17:10.932Z,27.07
2023-02-19T20:19:41.012Z,27.08
2023-02-19T20:22:11.136Z,27.08
2023-02-19T20:24:41.393Z,27.05
2023-02-19T20:27:11.383Z,27.03
2023-02-19T20:29:41.415Z,27.00
2023-02-19T20:32:11.587Z,26.99
2023-02-19T20:35:26.546Z,27.00
2023-02-19T20:38:06.013Z,26.96
2023-02-19T20:40:36.798Z,26.96
2023-02-19T20:43:07.210Z,26.96
2023-02-19T20:45:37.291Z,26.99
2023-02-19T20:48:07.404Z,26.99
2023-02-19T20:50:37.373Z,26.97
2023-02-19T20:53:07.497Z,26.97
2023-02-19T20:55:37.676Z,26.95
2023-02-19T20:58:08.574Z,26.95
2023-02-19T21:00:38.553Z,26.94
2023-02-19T21:03:10.360Z,26.92
2023-02-19T21:05:40.770Z,26.91
2023-02-19T21:08:11.984Z,26.90
2023-02-19T21:10:42.611Z,26.87
2023-02-19T21:13:12.767Z,26.87
2023-02-19T21:15:43.367Z,26.84
2023-02-19T21:18:13.750Z,26.82
2023-02-19T21:20:44.306Z,26.82
2023-02-19T21:23:15.335Z,26.83
2023-02-19T21:25:45.450Z,26.82
2023-02-19T21:28:15.454Z,26.84
2023-02-19T21:30:46.077Z,26.84
2023-02-19T21:33:17.996Z,26.82
2023-02-19T21:35:48.038Z,26.80
2023-02-19T21:38:18.029Z,26.79
2023-02-19T21:40:48.061Z,26.78
2023-02-19T21:43:18.072Z,26.77
2023-02-19T21:45:48.123Z,26.76
2023-02-19T21:48:18.278Z,26.77
2023-02-19T21:50:49.419Z,26.77
2023-02-19T21:53:19.485Z,26.78
2023-02-19T21:55:58.710Z,26.77
2023-02-19T21:58:28.957Z,26.73
2023-02-19T22:00:59.637Z,26.72
2023-02-19T22:03:29.700Z,26.68
2023-02-19T22:06:02.756Z,26.66
2023-02-19T22:08:32.744Z,26.74
2023-02-19T22:11:14.753Z,26.80
2023-02-19T22:13:44.994Z,26.90
2023-02-19T22:16:15.397Z,26.99
2023-02-19T22:18:55.624Z,27.04
2023-02-19T22:21:27.373Z,27.11
2023-02-19T22:23:57.578Z,27.12
2023-02-19T22:26:30.511Z,27.09
2023-02-19T22:29:01.137Z,27.04
2023-02-19T22:31:33.982Z,26.99
2023-02-19T22:34:04.100Z,26.96
2023-02-19T22:36:34.968Z,26.92
2023-02-19T22:39:06.608Z,26.89
2023-02-19T22:41:37.233Z,26.85
2023-02-19T22:44:07.191Z,26.83
2023-02-19T22:46:37.526Z,26.84
2023-02-19T22:49:07.965Z,26.82
2023-02-19T22:51:38.077Z,26.81
2023-02-19T22:54:08.126Z,26.78
2023-02-19T22:56:38.073Z,26.79
2023-02-19T22:59:08.056Z,26.85
2023-02-19T23:01:38.111Z,26.87
2023-02-19T23:04:08.522Z,26.92
2023-02-19T23:06:39.427Z,27.01
2023-02-19T23:09:11.276Z,27.08
2023-02-19T23:11:41.313Z,27.11
2023-02-19T23:14:11.366Z,27.17
2023-02-19T23:16:41.451Z,27.25
2023-02-19T23:19:39.363Z,27.31
2023-02-19T23:22:09.630Z,27.39
2023-02-19T23:24:40.573Z,27.43
2023-02-19T23:27:10.620Z,27.47
2023-02-19T23:29:40.622Z,27.53
2023-02-19T23:32:10.708Z,27.57
2023-02-19T23:34:40.771Z,27.62
2023-02-19T23:37:11.322Z,27.68
2023-02-19T23:39:41.444Z,27.73
2023-02-19T23:42:15.945Z,27.79
2023-02-19T23:44:48.995Z,27.86
2023-02-19T23:47:19.724Z,27.95
2023-02-19T23:49:50.270Z,28.01
2023-02-19T23:52:20.362Z,28.05
2023-02-19T23:54:50.446Z,28.09
2023-02-19T23:57:20.565Z,28.15
2023-02-19T23:59:50.568Z,28.21
